Time;durP1;ratioP1;P1;durP2;ratioP2;P2;SDS_P1;SDS_P2;PMS_P1;PMS_P2;Temp;Humidity;BMP_temperature;BMP_pressure;BME280_temperature;BME280_humidity;BME280_pressure;Samples;Min_cycle;Max_cycle;Signal;HPM_P1;HPM_P2
2022/12/29 00:01:30;;;;;;;;;;;11.30;99.90;;;;;;5035641;28;19924;-79
2022/12/29 00:03:56;;;;;;;;;;;11.30;99.90;;;;;;5019355;28;19924;-80
2022/12/29 00:06:21;;;;;;;;;;;11.30;99.90;;;;;;5013193;28;20330;-78
2022/12/29 00:08:47;;;;;;;;;;;11.30;99.90;;;;;;5014714;28;19977;-80
2022/12/29 00:11:13;;;;;;;;;;;11.30;99.90;;;;;;5030024;28;19910;-80
2022/12/29 00:16:23;;;;;;;;;;;11.30;99.90;;;;;;5022907;28;19916;-81
2022/12/29 00:18:49;;;;;;;;;;;11.40;99.90;;;;;;5022605;28;19909;-81
2022/12/29 00:35:09;;;;;;;;;;;11.40;99.90;;;;;;5022882;28;19948;-80
2022/12/29 00:45:52;;;;;;;;;;;11.60;99.90;;;;;;5016590;28;19960;-78
2022/12/29 00:49:29;;;;;;;;;;;11.60;99.90;;;;;;5015391;28;19909;-78
2022/12/29 00:51:03;;;;;;;;;;;11.70;99.90;;;;;;5015819;28;20005;-79
2022/12/29 00:53:28;;;;;;;;;;;11.60;99.90;;;;;;5016280;28;19937;-78
2022/12/29 00:55:54;;;;;;;;;;;11.60;99.90;;;;;;5016004;28;20387;-79
2022/12/29 00:58:19;;;;;;;;;;;11.60;99.90;;;;;;5016089;28;20292;-79
2022/12/29 01:00:45;;;;;;;;;;;11.60;99.90;;;;;;5014586;28;19924;-78
2022/12/29 01:03:10;;;;;;;;;;;11.70;99.90;;;;;;5015783;28;19910;-78
2022/12/29 01:05:36;;;;;;;;;;;11.70;99.90;;;;;;5015359;28;19920;-80
2022/12/29 01:08:01;;;;;;;;;;;11.60;99.90;;;;;;5013975;28;20414;-80
2022/12/29 01:10:27;;;;;;;;;;;11.60;99.90;;;;;;5014776;28;19914;-80
2022/12/29 01:12:52;;;;;;;;;;;11.60;99.90;;;;;;5014621;28;20063;-79
2022/12/29 01:15:18;;;;;;;;;;;11.60;99.90;;;;;;5014854;28;19909;-79
2022/12/29 01:17:43;;;;;;;;;;;11.50;99.90;;;;;;5014488;28;19917;-79
2022/12/29 01:20:10;;;;;;;;;;;11.60;99.90;;;;;;5012779;28;19916;-81
2022/12/29 01:22:36;;;;;;;;;;;11.60;99.90;;;;;;5014410;28;19930;-79
2022/12/29 01:25:01;;;;;;;;;;;11.60;99.90;;;;;;5013283;28;20009;-80
2022/12/29 01:27:27;;;;;;;;;;;11.60;99.90;;;;;;5013417;28;19955;-79
2022/12/29 01:29:52;;;;;;;;;;;11.70;99.90;;;;;;5015212;28;19914;-79
2022/12/29 01:32:18;;;;;;;;;;;11.60;99.90;;;;;;5028269;28;19913;-78
2022/12/29 01:34:43;;;;;;;;;;;11.60;99.90;;;;;;5021170;28;19913;-81
2022/12/29 01:37:09;;;;;;;;;;;11.70;99.90;;;;;;5014393;28;19917;-79
2022/12/29 01:39:35;;;;;;;;;;;11.70;99.90;;;;;;5013047;28;19909;-80
2022/12/29 01:42:00;;;;;;;;;;;11.70;99.90;;;;;;5017006;28;19910;-80
2022/12/29 01:44:58;;;;;;;;;;;11.70;99.90;;;;;;5015799;28;19913;-82
2022/12/29 01:47:27;;;;;;;;;;;11.70;99.90;;;;;;4985328;28;20372;-83
2022/12/29 01:49:53;;;;;;;;;;;11.70;99.90;;;;;;5016789;28;20347;-81
2022/12/29 01:52:19;;;;;;;;;;;11.80;99.90;;;;;;5018329;28;20318;-82
2022/12/29 01:54:48;;;;;;;;;;;11.90;99.90;;;;;;5018053;28;19910;-80
2022/12/29 01:57:16;;;;;;;;;;;11.80;99.90;;;;;;5017057;28;19909;-81
2022/12/29 01:59:45;;;;;;;;;;;11.80;99.90;;;;;;5018486;28;19909;-82
2022/12/29 02:02:11;;;;;;;;;;;11.90;99.90;;;;;;5075551;23;19929;-83
2022/12/29 02:04:39;;;;;;;;;;;11.90;99.90;;;;;;5072946;28;19913;-83
2022/12/29 02:07:08;;;;;;;;;;;11.90;99.90;;;;;;5072742;28;19909;-83
2022/12/29 02:09:34;;;;;;;;;;;11.80;99.90;;;;;;5073336;28;20289;-83
2022/12/29 02:11:59;;;;;;;;;;;11.90;99.90;;;;;;5072125;28;19970;-83
2022/12/29 02:14:25;;;;;;;;;;;11.90;99.90;;;;;;5057022;28;19908;-83
2022/12/29 02:17:05;;;;;;;;;;;11.90;99.90;;;;;;5073042;28;19909;-83
2022/12/29 02:19:37;;;;;;;;;;;11.90;99.90;;;;;;5056604;28;20285;-81
2022/12/29 02:22:16;;;;;;;;;;;12.00;99.90;;;;;;5056448;28;19909;-81
2022/12/29 02:24:48;;;;;;;;;;;12.00;99.90;;;;;;5056550;28;19956;-81
2022/12/29 02:27:22;;;;;;;;;;;12.10;99.90;;;;;;5056647;28;19912;-81
2022/12/29 02:30:03;;;;;;;;;;;12.10;99.90;;;;;;5057902;28;19909;-81
2022/12/29 02:32:43;;;;;;;;;;;12.10;99.90;;;;;;5055358;28;19908;-81
2022/12/29 02:35:18;;;;;;;;;;;12.20;99.90;;;;;;5057895;28;19913;-81
2022/12/29 02:37:51;;;;;;;;;;;12.20;99.90;;;;;;5058238;28;19913;-81
2022/12/29 02:40:16;;;;;;;;;;;12.30;99.90;;;;;;5055672;28;19908;-81
2022/12/29 02:42:57;;;;;;;;;;;12.30;99.90;;;;;;5055607;28;19920;-81
2022/12/29 02:45:35;;;;;;;;;;;12.40;99.90;;;;;;5057517;28;19919;-81
2022/12/29 02:48:06;;;;;;;;;;;12.50;99.90;;;;;;5057387;28;20273;-81
2022/12/29 02:50:39;;;;;;;;;;;12.50;99.90;;;;;;5056957;28;19909;-80
2022/12/29 02:53:07;;;;;;;;;;;12.60;99.90;;;;;;5056268;28;20362;-81
2022/12/29 02:55:33;;;;;;;;;;;12.70;99.90;;;;;;5055377;28;19956;-81
2022/12/29 02:58:10;;;;;;;;;;;12.70;99.90;;;;;;5055204;28;19932;-81
2022/12/29 03:00:38;;;;;;;;;;;12.70;99.90;;;;;;5055787;28;20542;-81
2022/12/29 03:03:13;;;;;;;;;;;12.80;99.90;;;;;;5057258;28;19916;-81
2022/12/29 03:05:57;;;;;;;;;;;12.70;99.90;;;;;;5057376;28;19913;-81
2022/12/29 03:08:34;;;;;;;;;;;12.70;99.90;;;;;;5057128;28;19909;-80
2022/12/29 03:11:03;;;;;;;;;;;12.70;99.90;;;;;;5055247;28;19942;-81
2022/12/29 03:16:40;;;;;;;;;;;12.70;99.90;;;;;;5056731;28;20031;-81
2022/12/29 03:19:09;;;;;;;;;;;12.70;99.90;;;;;;5055982;28;19909;-80
2022/12/29 03:24:46;;;;;;;;;;;12.60;99.90;;;;;;5056926;28;19936;-81
2022/12/29 03:27:15;;;;;;;;;;;12.60;99.90;;;;;;5056997;28;19941;-81
2022/12/29 03:29:43;;;;;;;;;;;12.50;99.90;;;;;;5057291;28;19909;-81
2022/12/29 03:32:11;;;;;;;;;;;12.50;99.90;;;;;;5055117;28;19908;-80
2022/12/29 03:34:36;;;;;;;;;;;12.50;99.90;;;;;;5056749;28;19909;-81
2022/12/29 03:37:04;;;;;;;;;;;12.50;99.90;;;;;;5056477;28;20003;-81
2022/12/29 03:39:30;;;;;;;;;;;12.40;99.90;;;;;;5056632;28;19931;-82
2022/12/29 03:41:58;;;;;;;;;;;12.40;99.90;;;;;;5054393;28;19909;-80
2022/12/29 03:44:36;;;;;;;;;;;12.50;99.90;;;;;;5058141;28;20015;-81
2022/12/29 03:47:01;;;;;;;;;;;12.50;99.90;;;;;;5058745;28;19909;-81
2022/12/29 03:49:27;;;;;;;;;;;12.50;99.90;;;;;;5058709;28;19931;-80
2022/12/29 03:51:52;;;;;;;;;;;12.50;99.90;;;;;;5059483;28;19960;-81
2022/12/29 03:54:18;;;;;;;;;;;12.40;99.90;;;;;;5074941;28;20289;-81
2022/12/29 03:56:43;;;;;;;;;;;12.40;99.90;;;;;;5058489;28;20000;-80
2022/12/29 03:59:09;;;;;;;;;;;12.40;99.90;;;;;;5076193;28;19915;-80
2022/12/29 04:01:34;;;;;;;;;;;12.40;99.90;;;;;;5059856;28;20012;-81
2022/12/29 04:04:00;;;;;;;;;;;12.30;99.90;;;;;;5075436;28;19909;-81
2022/12/29 04:06:25;;;;;;;;;;;12.30;99.90;;;;;;5058205;28;20011;-81
2022/12/29 04:08:50;;;;;;;;;;;12.30;99.90;;;;;;5057735;28;19909;-81
2022/12/29 04:11:16;;;;;;;;;;;12.30;99.90;;;;;;5074305;28;19909;-81
2022/12/29 04:13:41;;;;;;;;;;;12.30;99.90;;;;;;5059657;28;19931;-81
2022/12/29 04:16:08;;;;;;;;;;;12.30;99.90;;;;;;5058465;28;20285;-81
2022/12/29 04:18:33;;;;;;;;;;;12.20;99.90;;;;;;5056608;28;19913;-82
2022/12/29 04:21:03;;;;;;;;;;;12.30;99.90;;;;;;5056092;28;19955;-82
2022/12/29 04:23:30;;;;;;;;;;;12.30;99.90;;;;;;5056249;28;19982;-82
2022/12/29 04:25:56;;;;;;;;;;;12.30;99.90;;;;;;5057247;28;19916;-81
2022/12/29 04:28:21;;;;;;;;;;;12.30;99.90;;;;;;5057418;28;19992;-81
2022/12/29 04:30:46;;;;;;;;;;;12.30;99.90;;;;;;5058664;28;19909;-80
2022/12/29 04:33:12;;;;;;;;;;;12.30;99.90;;;;;;5058270;28;19913;-83
2022/12/29 04:35:37;;;;;;;;;;;12.40;99.90;;;;;;5057829;28;20358;-85
2022/12/29 04:38:03;;;;;;;;;;;12.50;99.90;;;;;;5056145;28;19915;-82
2022/12/29 04:40:28;;;;;;;;;;;12.50;99.90;;;;;;5072762;28;19908;-84
2022/12/29 04:42:54;;;;;;;;;;;12.60;99.90;;;;;;5056040;28;20351;-82
2022/12/29 04:45:19;;;;;;;;;;;12.70;99.90;;;;;;5055647;28;19962;-82
2022/12/29 04:47:45;;;;;;;;;;;12.70;99.90;;;;;;5055961;28;20007;-84
2022/12/29 04:50:10;;;;;;;;;;;12.80;99.90;;;;;;5057324;28;20563;-85
2022/12/29 04:52:36;;;;;;;;;;;12.80;99.90;;;;;;5055737;28;19952;-82
2022/12/29 04:55:02;;;;;;;;;;;12.80;99.90;;;;;;5056009;28;19908;-82
2022/12/29 04:57:27;;;;;;;;;;;12.70;99.90;;;;;;5072525;28;20359;-80
2022/12/29 04:59:53;;;;;;;;;;;12.80;99.90;;;;;;5057779;28;19912;-81
2022/12/29 05:02:18;;;;;;;;;;;12.70;99.90;;;;;;5055599;28;19917;-80
2022/12/29 05:04:44;;;;;;;;;;;12.70;99.90;;;;;;5057212;28;19924;-81
2022/12/29 05:07:10;;;;;;;;;;;12.70;99.90;;;;;;5057737;28;19962;-81
2022/12/29 05:09:35;;;;;;;;;;;12.70;99.90;;;;;;5056953;28;20270;-84
2022/12/29 05:12:01;;;;;;;;;;;12.80;99.90;;;;;;5054470;28;19916;-82
2022/12/29 05:14:26;;;;;;;;;;;12.80;99.90;;;;;;5054909;28;20248;-84
2022/12/29 05:16:52;;;;;;;;;;;12.80;99.90;;;;;;5055068;28;20106;-85
2022/12/29 05:19:17;;;;;;;;;;;12.90;99.90;;;;;;5071780;28;19916;-82
2022/12/29 05:21:43;;;;;;;;;;;13.00;99.90;;;;;;5054522;28;19917;-82
2022/12/29 05:24:08;;;;;;;;;;;13.00;99.90;;;;;;5056890;28;19912;-83
2022/12/29 05:26:34;;;;;;;;;;;13.00;99.90;;;;;;5054918;28;19916;-82
2022/12/29 05:28:59;;;;;;;;;;;13.00;99.90;;;;;;5056461;28;19909;-82
2022/12/29 05:31:25;;;;;;;;;;;13.10;99.90;;;;;;5070904;28;19909;-83
2022/12/29 05:33:51;;;;;;;;;;;13.10;99.90;;;;;;5054830;28;19916;-83
2022/12/29 05:36:16;;;;;;;;;;;13.10;99.90;;;;;;5054829;28;19916;-84
2022/12/29 05:38:42;;;;;;;;;;;13.10;99.90;;;;;;5054891;28;19913;-82
2022/12/29 05:41:07;;;;;;;;;;;13.10;99.90;;;;;;5055414;28;19909;-80
2022/12/29 05:43:33;;;;;;;;;;;13.10;99.90;;;;;;5057357;28;20000;-81
2022/12/29 05:45:58;;;;;;;;;;;13.10;99.90;;;;;;5073386;28;19913;-81
2022/12/29 05:48:24;;;;;;;;;;;13.10;99.90;;;;;;5055938;28;19915;-80
2022/12/29 05:50:50;;;;;;;;;;;13.00;99.90;;;;;;5072679;28;20266;-81
2022/12/29 05:53:16;;;;;;;;;;;13.10;99.90;;;;;;5055952;28;19909;-80
2022/12/29 05:55:42;;;;;;;;;;;13.10;99.90;;;;;;5057393;28;19931;-81
2022/12/29 05:58:08;;;;;;;;;;;13.10;99.90;;;;;;5057336;28;19944;-81
2022/12/29 06:00:33;;;;;;;;;;;13.10;99.90;;;;;;5055778;28;20011;-80
2022/12/29 06:02:59;;;;;;;;;;;13.00;99.90;;;;;;5055195;28;19909;-81
2022/12/29 06:05:24;;;;;;;;;;;13.10;99.90;;;;;;5057361;28;19912;-80
2022/12/29 06:07:51;;;;;;;;;;;13.00;99.90;;;;;;5055496;28;19952;-80
2022/12/29 06:10:16;;;;;;;;;;;13.00;99.90;;;;;;5055105;28;19974;-80
2022/12/29 06:12:42;;;;;;;;;;;13.00;99.90;;;;;;5054848;28;19956;-81
2022/12/29 06:15:07;;;;;;;;;;;13.00;99.90;;;;;;5056566;28;19909;-80
2022/12/29 06:17:33;;;;;;;;;;;13.00;99.90;;;;;;5055101;28;19920;-80
2022/12/29 06:19:58;;;;;;;;;;;13.00;99.90;;;;;;5054494;28;20396;-80
2022/12/29 06:22:24;;;;;;;;;;;13.00;99.90;;;;;;5071385;28;20278;-81
2022/12/29 06:24:49;;;;;;;;;;;13.00;99.90;;;;;;5056294;28;19974;-80
2022/12/29 06:27:15;;;;;;;;;;;13.00;99.90;;;;;;5055403;28;20367;-80
2022/12/29 06:29:41;;;;;;;;;;;12.90;99.90;;;;;;5053896;28;19999;-80
2022/12/29 06:32:06;;;;;;;;;;;12.90;99.90;;;;;;5055517;28;20370;-81
2022/12/29 06:34:32;;;;;;;;;;;12.90;99.90;;;;;;5056261;28;20071;-80
2022/12/29 06:36:57;;;;;;;;;;;12.90;99.90;;;;;;5070869;28;20328;-80
2022/12/29 06:39:23;;;;;;;;;;;12.80;99.90;;;;;;5054683;28;20362;-80
2022/12/29 06:41:51;;;;;;;;;;;12.90;99.90;;;;;;5053555;28;19915;-80
2022/12/29 06:44:16;;;;;;;;;;;12.80;99.90;;;;;;5053923;28;19920;-81
2022/12/29 06:46:42;;;;;;;;;;;12.80;99.90;;;;;;5054014;28;19912;-81
2022/12/29 06:49:07;;;;;;;;;;;12.80;99.90;;;;;;5069740;28;19967;-82
2022/12/29 06:51:33;;;;;;;;;;;12.80;99.90;;;;;;5052031;28;19916;-82
2022/12/29 06:53:58;;;;;;;;;;;12.80;99.90;;;;;;5052497;28;20053;-82
2022/12/29 06:56:23;;;;;;;;;;;12.80;99.90;;;;;;5052210;28;20366;-82
2022/12/29 06:58:49;;;;;;;;;;;12.80;99.90;;;;;;5053784;28;19909;-82
2022/12/29 07:01:14;;;;;;;;;;;12.90;99.90;;;;;;5053318;28;19921;-81
2022/12/29 07:03:43;;;;;;;;;;;12.80;99.90;;;;;;5052433;28;19936;-82
2022/12/29 07:06:09;;;;;;;;;;;12.90;99.90;;;;;;5049824;28;19917;-82
2022/12/29 07:08:34;;;;;;;;;;;12.80;99.90;;;;;;5031530;28;19909;-81
2022/12/29 07:10:59;;;;;;;;;;;12.90;99.90;;;;;;5031907;28;19916;-81
2022/12/29 07:13:25;;;;;;;;;;;12.90;99.90;;;;;;5033865;28;19972;-81
2022/12/29 07:15:50;;;;;;;;;;;12.80;99.90;;;;;;5032226;28;20004;-83
2022/12/29 07:18:16;;;;;;;;;;;12.80;99.90;;;;;;5031424;28;20351;-82
2022/12/29 07:20:41;;;;;;;;;;;12.80;99.90;;;;;;5034664;28;19918;-82
2022/12/29 07:23:07;;;;;;;;;;;12.80;99.90;;;;;;5051556;28;19909;-82
2022/12/29 07:25:32;;;;;;;;;;;12.70;99.90;;;;;;5047276;28;19967;-82
2022/12/29 07:27:58;;;;;;;;;;;12.70;99.90;;;;;;5039961;28;19916;-81
2022/12/29 07:30:23;;;;;;;;;;;12.80;99.90;;;;;;5033533;28;19913;-82
2022/12/29 07:32:49;;;;;;;;;;;12.70;99.90;;;;;;5033123;28;20585;-82
2022/12/29 07:35:14;;;;;;;;;;;12.60;99.90;;;;;;5033238;28;19909;-81
2022/12/29 07:37:40;;;;;;;;;;;12.60;99.90;;;;;;5032261;28;19963;-81
2022/12/29 07:40:05;;;;;;;;;;;12.60;99.90;;;;;;5033168;28;20359;-81
2022/12/29 07:42:31;;;;;;;;;;;12.60;99.90;;;;;;5031637;28;19909;-81
2022/12/29 07:44:56;;;;;;;;;;;12.60;99.90;;;;;;5033017;28;19919;-81
2022/12/29 07:47:22;;;;;;;;;;;12.60;99.90;;;;;;5032052;28;19913;-82
2022/12/29 07:49:47;;;;;;;;;;;12.50;99.90;;;;;;5031905;28;19917;-81
2022/12/29 07:52:13;;;;;;;;;;;12.60;99.90;;;;;;5031387;28;20335;-81
2022/12/29 07:54:38;;;;;;;;;;;12.50;99.90;;;;;;5031705;28;19909;-82
2022/12/29 07:57:04;;;;;;;;;;;12.50;99.90;;;;;;5031893;28;19959;-82
2022/12/29 07:59:30;;;;;;;;;;;12.50;99.90;;;;;;5033487;28;20407;-82
2022/12/29 08:01:55;;;;;;;;;;;12.40;99.90;;;;;;5036831;28;19917;-81
2022/12/29 08:04:21;;;;;;;;;;;12.30;99.90;;;;;;5033354;28;19920;-83
2022/12/29 08:06:46;;;;;;;;;;;12.30;99.90;;;;;;5032379;28;19909;-82
2022/12/29 08:09:12;;;;;;;;;;;12.20;99.90;;;;;;5033300;28;20394;-83
2022/12/29 08:11:38;;;;;;;;;;;12.20;99.90;;;;;;5031208;28;19913;-82
2022/12/29 08:14:03;;;;;;;;;;;12.20;99.90;;;;;;5033234;28;19916;-83
2022/12/29 08:16:29;;;;;;;;;;;12.30;99.90;;;;;;5031708;28;19917;-81
2022/12/29 08:18:54;;;;;;;;;;;12.30;99.90;;;;;;5031429;28;19909;-83
2022/12/29 08:21:20;;;;;;;;;;;12.20;99.90;;;;;;5031304;28;19917;-83
2022/12/29 08:23:47;;;;;;;;;;;12.10;99.90;;;;;;5032927;28;19909;-82
2022/12/29 08:26:12;;;;;;;;;;;12.10;99.90;;;;;;5031391;28;20375;-82
2022/12/29 08:28:38;;;;;;;;;;;12.00;99.90;;;;;;5031547;28;20051;-82
2022/12/29 08:31:03;;;;;;;;;;;11.90;99.90;;;;;;5033466;28;19909;-82
2022/12/29 08:33:29;;;;;;;;;;;11.90;99.90;;;;;;5034562;28;19913;-84
2022/12/29 08:36:01;;;;;;;;;;;11.90;99.90;;;;;;5034629;28;19916;-82
2022/12/29 08:38:28;;;;;;;;;;;12.00;99.90;;;;;;5034280;28;19909;-83
2022/12/29 08:40:54;;;;;;;;;;;12.00;99.90;;;;;;5035458;28;19980;-82
2022/12/29 08:43:19;;;;;;;;;;;12.10;99.90;;;;;;5035596;28;20394;-84
2022/12/29 08:45:45;;;;;;;;;;;12.10;99.90;;;;;;5034045;28;19913;-83
2022/12/29 08:48:10;;;;;;;;;;;12.00;99.90;;;;;;5036198;28;19976;-81
2022/12/29 08:50:35;;;;;;;;;;;12.10;99.90;;;;;;5034838;28;19976;-84
2022/12/29 08:53:01;;;;;;;;;;;12.20;99.90;;;;;;5035857;28;19976;-84
2022/12/29 08:55:26;;;;;;;;;;;12.20;99.90;;;;;;5035553;28;19955;-81
2022/12/29 08:57:52;;;;;;;;;;;12.30;99.90;;;;;;5038657;28;19964;-81
2022/12/29 09:00:17;;;;;;;;;;;12.30;99.90;;;;;;5037522;28;19909;-81
2022/12/29 09:02:43;;;;;;;;;;;12.40;99.90;;;;;;5036739;28;19912;-81
2022/12/29 09:05:09;;;;;;;;;;;12.40;99.90;;;;;;5037663;28;19920;-81
2022/12/29 09:07:35;;;;;;;;;;;12.50;99.90;;;;;;5038153;28;19920;-81
2022/12/29 09:10:01;;;;;;;;;;;12.70;99.90;;;;;;5035740;28;19980;-81
2022/12/29 09:12:26;;;;;;;;;;;12.80;99.90;;;;;;5037666;28;19916;-81
2022/12/29 09:14:51;;;;;;;;;;;12.90;99.90;;;;;;5036312;28;19920;-81
2022/12/29 09:20:01;;;;;;;;;;;13.00;99.90;;;;;;5033732;28;19916;-83
2022/12/29 09:22:27;;;;;;;;;;;12.90;99.90;;;;;;5033380;28;20355;-83
2022/12/29 09:24:52;;;;;;;;;;;12.90;99.90;;;;;;5033578;28;19921;-82
2022/12/29 09:27:17;;;;;;;;;;;12.90;99.90;;;;;;5032738;28;19909;-81
2022/12/29 09:29:43;;;;;;;;;;;13.00;99.90;;;;;;5035097;28;20000;-82
2022/12/29 09:32:08;;;;;;;;;;;12.90;99.90;;;;;;5033984;28;19959;-82
2022/12/29 09:34:34;;;;;;;;;;;12.90;99.90;;;;;;5056068;28;19980;-82
2022/12/29 09:36:59;;;;;;;;;;;12.90;99.90;;;;;;5035125;28;20374;-82
2022/12/29 09:39:25;;;;;;;;;;;12.90;99.90;;;;;;5050176;28;19952;-82
2022/12/29 09:41:50;;;;;;;;;;;12.80;99.90;;;;;;5033908;28;19909;-83
2022/12/29 09:44:19;;;;;;;;;;;12.80;99.90;;;;;;5054287;28;19916;-82
2022/12/29 09:46:47;;;;;;;;;;;12.80;99.90;;;;;;5055574;28;19913;-82
2022/12/29 09:49:15;;;;;;;;;;;12.80;99.90;;;;;;5070481;28;19913;-83
2022/12/29 09:51:42;;;;;;;;;;;12.80;99.90;;;;;;5052948;28;19915;-82
2022/12/29 09:54:23;;;;;;;;;;;12.80;99.90;;;;;;5053138;28;19932;-82
2022/12/29 09:56:49;;;;;;;;;;;12.70;99.90;;;;;;5052926;28;19963;-82
2022/12/29 09:59:16;;;;;;;;;;;12.80;99.90;;;;;;5069553;28;19908;-82
2022/12/29 10:01:45;;;;;;;;;;;12.70;99.90;;;;;;5052502;28;19920;-82
2022/12/29 10:04:10;;;;;;;;;;;12.70;99.90;;;;;;5054439;28;19909;-82
2022/12/29 10:06:44;;;;;;;;;;;12.60;99.90;;;;;;5053500;28;19915;-82
2022/12/29 10:09:12;;;;;;;;;;;12.50;99.90;;;;;;5053327;28;19909;-82
2022/12/29 10:11:44;;;;;;;;;;;12.70;99.90;;;;;;5052931;28;19909;-82
2022/12/29 10:14:19;;;;;;;;;;;12.70;99.90;;;;;;5055032;28;19935;-82
2022/12/29 10:17:00;;;;;;;;;;;12.60;99.90;;;;;;5053627;28;19909;-82
2022/12/29 10:19:41;;;;;;;;;;;12.70;99.90;;;;;;5052952;28;19916;-82
2022/12/29 10:22:28;;;;;;;;;;;12.70;99.90;;;;;;5052768;28;19939;-82
2022/12/29 10:24:55;;;;;;;;;;;12.70;99.90;;;;;;5052666;28;19913;-82
2022/12/29 10:27:20;;;;;;;;;;;12.70;99.90;;;;;;5053066;28;19959;-82
2022/12/29 10:29:52;;;;;;;;;;;12.70;99.90;;;;;;5052394;28;19909;-82
2022/12/29 10:32:17;;;;;;;;;;;12.60;99.90;;;;;;5052727;28;20007;-82
2022/12/29 10:34:46;;;;;;;;;;;12.60;99.90;;;;;;5052832;28;19956;-82
2022/12/29 10:37:22;;;;;;;;;;;12.60;99.90;;;;;;5053161;28;19999;-82
2022/12/29 10:39:53;;;;;;;;;;;12.70;99.90;;;;;;5070209;28;20437;-81
2022/12/29 10:42:22;;;;;;;;;;;12.80;99.90;;;;;;5053072;28;20267;-82
2022/12/29 10:44:47;;;;;;;;;;;12.90;99.90;;;;;;5053073;28;19920;-82
2022/12/29 10:47:16;;;;;;;;;;;13.00;99.90;;;;;;5070167;28;19909;-82
2022/12/29 10:49:42;;;;;;;;;;;13.10;99.90;;;;;;5053321;28;19916;-82
2022/12/29 10:52:08;;;;;;;;;;;13.30;99.90;;;;;;5052250;28;19909;-82
2022/12/29 10:54:49;;;;;;;;;;;13.30;99.90;;;;;;5054460;28;19931;-82
2022/12/29 10:57:30;;;;;;;;;;;13.40;99.90;;;;;;5053120;28;20417;-82
2022/12/29 10:59:57;;;;;;;;;;;13.50;99.90;;;;;;5053954;28;19915;-82
2022/12/29 11:02:41;;;;;;;;;;;13.50;99.90;;;;;;5051885;28;20012;-82
2022/12/29 11:05:15;;;;;;;;;;;13.50;99.90;;;;;;5052819;28;19913;-82
2022/12/29 11:07:40;;;;;;;;;;;13.50;99.90;;;;;;5054831;28;20018;-82
2022/12/29 11:10:40;;;;;;;;;;;13.60;99.90;;;;;;5052628;28;19936;-83
2022/12/29 11:13:16;;;;;;;;;;;13.70;99.90;;;;;;5020125;28;19989;-83
2022/12/29 11:15:43;;;;;;;;;;;13.80;99.90;;;;;;5063308;28;19919;-82
2022/12/29 11:18:17;;;;;;;;;;;14.00;99.90;;;;;;5082391;28;19909;-82
2022/12/29 11:20:43;;;;;;;;;;;14.20;99.90;;;;;;5082535;28;19920;-82
2022/12/29 11:23:29;;;;;;;;;;;14.50;99.90;;;;;;5059728;28;19959;-83
2022/12/29 11:26:12;;;;;;;;;;;14.50;99.90;;;;;;5060826;28;19913;-83
2022/12/29 11:28:38;;;;;;;;;;;14.40;99.90;;;;;;5059309;28;19909;-82
2022/12/29 11:31:06;;;;;;;;;;;14.50;99.90;;;;;;5060289;28;19936;-83
2022/12/29 11:33:32;;;;;;;;;;;14.70;99.90;;;;;;5059018;28;19909;-83
2022/12/29 11:35:59;;;;;;;;;;;15.10;99.90;;;;;;5059466;28;19910;-83
2022/12/29 11:38:33;;;;;;;;;;;15.40;99.90;;;;;;5059115;28;19951;-82
2022/12/29 11:40:59;;;;;;;;;;;14.80;99.90;;;;;;5049662;28;19931;-82
2022/12/29 11:43:33;;;;;;;;;;;14.40;99.90;;;;;;5057781;28;20252;-83
2022/12/29 11:45:59;;;;;;;;;;;14.00;99.90;;;;;;5060766;28;19935;-83
2022/12/29 11:48:26;;;;;;;;;;;13.80;99.90;;;;;;5060388;28;19998;-82
2022/12/29 11:50:53;;;;;;;;;;;13.70;99.90;;;;;;5058465;28;19913;-83
2022/12/29 11:53:28;;;;;;;;;;;13.50;99.90;;;;;;5058518;28;19916;-83
2022/12/29 11:55:55;;;;;;;;;;;13.40;99.90;;;;;;5058413;28;19949;-82
2022/12/29 11:58:28;;;;;;;;;;;13.60;99.90;;;;;;5058385;28;19909;-83
2022/12/29 12:00:54;;;;;;;;;;;13.50;99.90;;;;;;5058518;28;19939;-82
2022/12/29 12:03:23;;;;;;;;;;;13.40;99.90;;;;;;5058732;28;20370;-82
2022/12/29 12:05:52;;;;;;;;;;;13.50;99.90;;;;;;5057565;28;19913;-82
2022/12/29 12:08:22;;;;;;;;;;;13.70;99.90;;;;;;5060486;28;19908;-83
2022/12/29 12:10:58;;;;;;;;;;;13.70;99.90;;;;;;5041243;28;19909;-82
2022/12/29 12:13:31;;;;;;;;;;;13.60;99.90;;;;;;5043697;28;20294;-82
2022/12/29 12:16:01;;;;;;;;;;;13.80;99.90;;;;;;5077696;28;20278;-82
2022/12/29 12:18:32;;;;;;;;;;;13.90;99.90;;;;;;5078390;28;19908;-82
2022/12/29 12:21:04;;;;;;;;;;;14.20;99.90;;;;;;5077128;28;19912;-83
2022/12/29 12:23:32;;;;;;;;;;;14.00;99.90;;;;;;5067990;28;19913;-83
2022/12/29 12:26:10;;;;;;;;;;;13.90;99.90;;;;;;5071656;28;19932;-82
2022/12/29 12:28:52;;;;;;;;;;;13.90;99.90;;;;;;5074051;28;20390;-82
2022/12/29 12:31:25;;;;;;;;;;;13.90;99.90;;;;;;5073174;28;19916;-83
2022/12/29 12:33:54;;;;;;;;;;;14.00;99.90;;;;;;5073819;28;20549;-83
2022/12/29 12:36:37;;;;;;;;;;;13.80;99.90;;;;;;5058691;28;19908;-83
2022/12/29 12:39:06;;;;;;;;;;;13.70;99.90;;;;;;5056345;28;19909;-82
2022/12/29 12:42:07;;;;;;;;;;;14.00;99.90;;;;;;5038532;28;20291;-83
2022/12/29 12:44:51;;;;;;;;;;;13.80;99.90;;;;;;5017772;28;19977;-82
2022/12/29 12:47:34;;;;;;;;;;;13.80;99.90;;;;;;5038937;28;19909;-82
2022/12/29 12:50:09;;;;;;;;;;;13.70;99.90;;;;;;5040039;28;19909;-82
2022/12/29 12:52:53;;;;;;;;;;;13.80;99.90;;;;;;5040075;28;19917;-82
2022/12/29 12:55:18;;;;;;;;;;;13.60;99.90;;;;;;5039857;28;19913;-82
2022/12/29 12:57:53;;;;;;;;;;;13.40;99.90;;;;;;5038194;28;19909;-82
2022/12/29 13:00:19;;;;;;;;;;;13.30;99.90;;;;;;5037333;28;19936;-81
2022/12/29 13:02:56;;;;;;;;;;;13.30;99.90;;;;;;5035109;28;19913;-81
2022/12/29 13:05:33;;;;;;;;;;;13.20;99.90;;;;;;5035279;28;19917;-81
2022/12/29 13:08:17;;;;;;;;;;;13.30;99.90;;;;;;5043213;28;19962;-81
2022/12/29 13:10:52;;;;;;;;;;;13.30;99.90;;;;;;5052911;28;19908;-81
2022/12/29 13:13:38;;;;;;;;;;;13.40;99.90;;;;;;5053671;28;19915;-82
2022/12/29 13:16:10;;;;;;;;;;;13.20;99.90;;;;;;5052314;28;19966;-81
2022/12/29 13:18:41;;;;;;;;;;;13.10;99.90;;;;;;5053099;28;19931;-80
2022/12/29 13:21:18;;;;;;;;;;;12.90;99.90;;;;;;5052307;28;19909;-81
2022/12/29 13:23:54;;;;;;;;;;;12.80;99.90;;;;;;5069679;28;20659;-81
2022/12/29 13:26:23;;;;;;;;;;;12.80;99.90;;;;;;5054154;28;20332;-81
2022/12/29 13:28:58;;;;;;;;;;;12.70;99.90;;;;;;5053180;28;19930;-82
2022/12/29 13:31:32;;;;;;;;;;;12.70;99.90;;;;;;5052524;28;20510;-81
2022/12/29 13:34:10;;;;;;;;;;;12.70;99.90;;;;;;5052852;28;19963;-81
2022/12/29 13:36:39;;;;;;;;;;;12.70;99.90;;;;;;5052804;28;19909;-81
2022/12/29 13:39:11;;;;;;;;;;;12.70;99.90;;;;;;5052131;28;20385;-81
2022/12/29 13:41:43;;;;;;;;;;;12.60;99.90;;;;;;5053469;28;20405;-80
2022/12/29 13:44:14;;;;;;;;;;;12.60;99.90;;;;;;5052324;28;19909;-81
2022/12/29 13:46:42;;;;;;;;;;;12.50;99.90;;;;;;5068979;28;19916;-80
2022/12/29 13:49:10;;;;;;;;;;;12.60;99.90;;;;;;5068966;28;19909;-81
2022/12/29 13:51:37;;;;;;;;;;;12.60;99.90;;;;;;5053545;28;19944;-80
2022/12/29 13:54:12;;;;;;;;;;;12.60;99.90;;;;;;5053518;28;19913;-81
2022/12/29 13:57:13;;;;;;;;;;;12.50;99.90;;;;;;5053226;28;19940;-81
2022/12/29 13:59:53;;;;;;;;;;;12.40;99.90;;;;;;4975718;28;19910;-82
2022/12/29 14:02:34;;;;;;;;;;;12.40;99.90;;;;;;5059699;28;19917;-82
2022/12/29 14:05:22;;;;;;;;;;;12.30;99.90;;;;;;5052160;28;19956;-80
2022/12/29 14:07:58;;;;;;;;;;;12.30;99.90;;;;;;5051580;28;19913;-81
2022/12/29 14:10:27;;;;;;;;;;;12.20;99.90;;;;;;5052831;28;19935;-81
2022/12/29 14:12:59;;;;;;;;;;;12.30;99.90;;;;;;5051928;28;19919;-81
2022/12/29 14:15:25;;;;;;;;;;;12.30;99.90;;;;;;5052016;28;19963;-81
2022/12/29 14:18:09;;;;;;;;;;;12.30;99.90;;;;;;5053333;28;19909;-81
2022/12/29 14:20:35;;;;;;;;;;;12.20;99.90;;;;;;5051517;28;19909;-82
2022/12/29 14:23:10;;;;;;;;;;;12.20;99.90;;;;;;5051453;28;19986;-81
2022/12/29 14:25:53;;;;;;;;;;;12.20;99.90;;;;;;5051582;28;20015;-81
2022/12/29 14:28:26;;;;;;;;;;;12.30;99.90;;;;;;5053063;28;19940;-81
2022/12/29 14:30:53;;;;;;;;;;;12.30;99.90;;;;;;5051400;28;19913;-80
2022/12/29 14:33:20;;;;;;;;;;;12.30;99.90;;;;;;5051482;28;20358;-80
2022/12/29 14:35:49;;;;;;;;;;;12.30;99.90;;;;;;5052600;28;20456;-80
2022/12/29 14:38:19;;;;;;;;;;;12.30;99.90;;;;;;5069471;28;19909;-82
2022/12/29 14:40:45;;;;;;;;;;;12.30;99.90;;;;;;5052743;28;19908;-84
2022/12/29 14:43:13;;;;;;;;;;;12.30;99.90;;;;;;5071178;28;19952;-82
2022/12/29 14:45:40;;;;;;;;;;;12.30;99.90;;;;;;5054894;28;19916;-82
2022/12/29 14:48:24;;;;;;;;;;;12.30;99.90;;;;;;5049367;28;19909;-82
2022/12/29 14:50:49;;;;;;;;;;;12.30;99.90;;;;;;5045371;28;19913;-83
2022/12/29 14:53:33;;;;;;;;;;;12.20;99.90;;;;;;5063729;28;20075;-83
2022/12/29 14:55:59;;;;;;;;;;;12.10;99.90;;;;;;5034074;28;19909;-82
2022/12/29 14:58:31;;;;;;;;;;;12.20;99.90;;;;;;5033224;28;20422;-81
2022/12/29 15:00:58;;;;;;;;;;;12.10;99.90;;;;;;5032064;28;19931;-82